Time;durP1;ratioP1;P1;durP2;ratioP2;P2;SDS_P1;SDS_P2;PMS_P1;PMS_P2;Temp;Humidity;BMP_temperature;BMP_pressure;BME280_temperature;BME280_humidity;BME280_pressure;Samples;Min_cycle;Max_cycle;Signal;HPM_P1;HPM_P2
2021/01/27 00:00:33;;;;;;;3.37;2.53;;;;;;;2.67;50.06;95613.25;6932397;28;20288;-77
2021/01/27 00:03:53;;;;;;;3.70;2.17;;;;;;;2.59;50.98;95616.28;6942455;28;20228;-77
2021/01/27 00:07:13;;;;;;;2.67;2.47;;;;;;;2.51;51.43;95608.81;6921219;28;20688;-78
2021/01/27 00:10:35;;;;;;;4.27;3.20;;;;;;;2.48;51.76;95593.25;6923531;28;20215;-80
2021/01/27 00:13:55;;;;;;;4.63;2.93;;;;;;;2.50;51.99;95609.75;6949510;28;20209;-78
2021/01/27 00:17:16;;;;;;;6.17;4.07;;;;;;;2.49;52.50;95592.31;6951260;28;20234;-79
2021/01/27 00:20:36;;;;;;;5.10;3.50;;;;;;;2.49;52.39;95591.47;6916734;28;20771;-79
2021/01/27 00:23:57;;;;;;;4.73;2.93;;;;;;;2.51;52.72;95592.25;6928148;28;20603;-78
2021/01/27 00:27:17;;;;;;;2.40;2.10;;;;;;;2.55;52.43;95578.03;6946142;28;20655;-79
2021/01/27 00:30:40;;;;;;;2.37;1.90;;;;;;;2.57;52.40;95574.41;6927592;28;20589;-79
2021/01/27 00:34:00;;;;;;;5.07;2.10;;;;;;;2.63;51.52;95568.00;6942227;28;20218;-79
2021/01/27 00:37:24;;;;;;;5.37;2.13;;;;;;;2.66;51.14;95559.13;6969782;28;20292;-78
2021/01/27 00:40:45;;;;;;;2.87;1.97;;;;;;;2.69;51.61;95561.59;6970792;28;20209;-78
2021/01/27 00:44:08;;;;;;;4.77;2.30;;;;;;;2.71;51.23;95557.97;6950188;28;20228;-81
2021/01/27 00:47:28;;;;;;;6.20;3.10;;;;;;;2.66;51.39;95557.34;6939675;28;20220;-79
2021/01/27 00:50:51;;;;;;;6.73;2.70;;;;;;;2.61;51.53;95548.03;6971684;28;20214;-78
2021/01/27 00:54:12;;;;;;;4.67;2.90;;;;;;;2.52;51.93;95529.22;6954729;28;20254;-78
2021/01/27 00:57:32;;;;;;;3.63;2.77;;;;;;;2.49;52.13;95539.03;6977917;28;20237;-78
2021/01/27 01:00:53;;;;;;;3.40;2.47;;;;;;;2.46;52.75;95519.09;6939602;28;20212;-79
2021/01/27 01:04:13;;;;;;;3.53;2.27;;;;;;;2.40;52.62;95527.28;6949980;28;20302;-79
2021/01/27 01:07:36;;;;;;;4.57;2.40;;;;;;;2.34;52.25;95526.75;6967579;28;20210;-78
2021/01/27 01:10:59;;;;;;;6.80;3.10;;;;;;;2.31;52.79;95525.16;6965315;28;20700;-78
2021/01/27 01:14:19;;;;;;;5.10;3.13;;;;;;;2.27;52.82;95517.50;6970017;28;20214;-79
2021/01/27 01:17:40;;;;;;;4.73;3.40;;;;;;;2.19;52.95;95528.38;6924222;28;20200;-78
2021/01/27 01:21:00;;;;;;;5.00;2.97;;;;;;;2.12;53.06;95522.59;6958869;28;20292;-78
2021/01/27 01:24:21;;;;;;;5.63;2.80;;;;;;;2.07;52.98;95531.63;6951745;28;20660;-78
2021/01/27 01:27:43;;;;;;;3.50;2.30;;;;;;;2.06;53.26;95524.72;6933085;28;20581;-78
2021/01/27 01:31:03;;;;;;;3.03;2.10;;;;;;;2.02;53.26;95515.28;6948152;28;20648;-79
2021/01/27 01:34:23;;;;;;;4.83;2.20;;;;;;;2.05;53.21;95496.81;6937643;28;20702;-78
2021/01/27 01:37:44;;;;;;;3.17;1.90;;;;;;;2.05;52.89;95512.53;6943621;28;20216;-78
2021/01/27 01:41:05;;;;;;;2.30;1.57;;;;;;;2.05;52.44;95509.91;6971269;28;20266;-77
2021/01/27 01:44:25;;;;;;;3.33;1.93;;;;;;;2.05;52.26;95494.22;6952579;28;20245;-78
2021/01/27 01:47:46;;;;;;;3.80;1.70;;;;;;;2.04;52.06;95495.13;6979465;28;20327;-77
2021/01/27 01:51:17;;;;;;;2.27;1.77;;;;;;;2.04;51.50;95485.50;6975840;28;20278;-77
2021/01/27 01:54:41;;;;;;;1.50;1.40;;;;;;;2.04;51.62;95488.13;6965678;28;20212;-78
2021/01/27 01:58:05;;;;;;;2.30;1.53;;;;;;;2.06;51.24;95481.00;6959775;28;20748;-78
2021/01/27 02:01:28;;;;;;;2.37;1.67;;;;;;;2.10;50.99;95479.09;6951396;28;20233;-78
2021/01/27 02:05:13;;;;;;;4.03;1.60;;;;;;;2.10;50.94;95477.31;6976474;28;20765;-78
2021/01/27 02:08:34;;;;;;;2.33;1.93;;;;;;;2.10;50.57;95466.00;6982128;28;20745;-79
2021/01/27 02:12:23;;;;;;;2.60;1.57;;;;;;;2.06;50.92;95472.34;6953535;28;20220;-79
2021/01/27 02:16:08;;;;;;;2.60;1.53;;;;;;;2.03;50.73;95454.13;6939332;28;20300;-79
2021/01/27 02:19:47;;;;;;;1.93;1.73;;;;;;;2.05;50.99;95453.16;6951010;28;20232;-78
2021/01/27 02:23:33;;;;;;;2.40;1.80;;;;;;;2.09;50.10;95436.34;6971371;28;20235;-78
2021/01/27 02:27:08;;;;;;;3.67;1.47;;;;;;;2.13;50.32;95440.47;6962576;28;20220;-78
2021/01/27 02:30:59;;;;;;;1.77;1.40;;;;;;;2.18;49.81;95435.00;6960465;28;20238;-78
2021/01/27 02:34:38;;;;;;;1.97;1.30;;;;;;;2.19;49.90;95439.31;6948260;28;20225;-79
2021/01/27 02:38:08;;;;;;;1.93;1.50;;;;;;;2.22;49.56;95438.28;6966901;28;20210;-78
2021/01/27 02:41:42;;;;;;;2.50;1.70;;;;;;;2.15;49.82;95433.41;6974016;28;20235;-79
2021/01/27 02:45:24;;;;;;;3.00;2.40;;;;;;;2.15;49.42;95428.16;6978986;28;20216;-78
2021/01/27 02:49:06;;;;;;;2.03;1.53;;;;;;;2.13;49.32;95423.91;6933083;28;20232;-79
2021/01/27 02:52:34;;;;;;;1.00;0.90;;;;;;;2.13;49.86;95424.75;6962770;28;20287;-79
2021/01/27 02:55:57;;;;;;;1.20;1.10;;;;;;;2.16;49.16;95415.91;6959374;28;20223;-79
2021/01/27 02:59:33;;;;;;;1.43;1.10;;;;;;;2.20;48.74;95414.81;6956299;28;20241;-78
2021/01/27 03:03:05;;;;;;;1.87;1.20;;;;;;;2.27;48.64;95408.28;6956395;28;20698;-78
2021/01/27 03:06:25;;;;;;;2.20;1.17;;;;;;;2.31;48.21;95416.84;6941514;28;20217;-79
2021/01/27 03:09:56;;;;;;;1.43;1.00;;;;;;;2.30;48.57;95409.91;6951590;28;20220;-79
2021/01/27 03:13:16;;;;;;;1.60;1.30;;;;;;;2.26;49.31;95421.50;6971728;28;20741;-79
2021/01/27 03:16:51;;;;;;;2.90;1.17;;;;;;;2.26;49.27;95430.22;6928964;28;20242;-79
2021/01/27 03:20:17;;;;;;;1.97;1.37;;;;;;;2.28;49.72;95424.88;6958255;28;20252;-80
2021/01/27 03:23:49;;;;;;;2.03;1.80;;;;;;;2.28;49.68;95430.09;6956298;28;20250;-78
2021/01/27 03:27:14;;;;;;;2.40;1.73;;;;;;;2.29;50.42;95424.78;6956209;28;20245;-78
2021/01/27 03:30:35;;;;;;;2.80;1.53;;;;;;;2.26;50.09;95431.97;6961156;28;20226;-78
2021/01/27 03:34:02;;;;;;;2.23;1.67;;;;;;;2.28;50.54;95424.88;6947444;28;20215;-79
2021/01/27 03:37:35;;;;;;;2.87;2.20;;;;;;;2.21;51.46;95424.38;6956963;28;20220;-78
2021/01/27 03:41:01;;;;;;;3.97;2.03;;;;;;;2.19;51.57;95434.06;6957894;28;20220;-79
2021/01/27 03:44:31;;;;;;;3.00;1.90;;;;;;;2.20;52.16;95429.69;6965809;28;20237;-79
2021/01/27 03:47:59;;;;;;;3.17;2.30;;;;;;;2.20;52.71;95424.44;6955063;28;20880;-79
2021/01/27 03:51:24;;;;;;;4.97;1.90;;;;;;;2.21;53.02;95420.91;6965453;28;20220;-80
2021/01/27 03:54:54;;;;;;;4.30;2.10;;;;;;;2.25;53.62;95423.28;6976644;28;20298;-79
2021/01/27 03:58:18;;;;;;;2.63;2.10;;;;;;;2.26;53.75;95426.75;6957343;28;20233;-79
2021/01/27 04:01:48;;;;;;;6.63;3.50;;;;;;;2.25;53.76;95428.50;6947330;28;20251;-79
2021/01/27 04:05:09;;;;;;;4.03;3.20;;;;;;;2.25;53.96;95439.00;6957553;28;20319;-80
2021/01/27 04:08:30;;;;;;;4.67;3.73;;;;;;;2.25;54.37;95439.00;6960156;28;20216;-79
2021/01/27 04:11:50;;;;;;;6.17;3.17;;;;;;;2.20;54.86;95434.91;6952632;28;20290;-80
2021/01/27 04:15:11;;;;;;;4.27;3.87;;;;;;;2.25;55.14;95446.00;6952090;28;20225;-79
2021/01/27 04:18:34;;;;;;;5.07;3.60;;;;;;;2.25;55.24;95446.84;6955550;28;20575;-80
2021/01/27 04:21:54;;;;;;;3.23;2.93;;;;;;;2.31;55.82;95451.78;6956744;28;20311;-79
2021/01/27 04:25:18;;;;;;;4.33;2.87;;;;;;;2.35;55.59;95457.69;6955074;28;20232;-78
2021/01/27 04:28:44;;;;;;;5.27;2.87;;;;;;;2.39;55.91;95461.81;6951549;28;20228;-81
2021/01/27 04:32:05;;;;;;;3.13;2.73;;;;;;;2.45;55.82;95458.88;6961758;28;20323;-80
2021/01/27 04:35:26;;;;;;;3.97;2.53;;;;;;;2.48;55.51;95462.19;6936315;28;20229;-80
2021/01/27 04:38:49;;;;;;;4.53;2.60;;;;;;;2.52;55.27;95458.47;6966351;28;20728;-81
2021/01/27 04:42:10;;;;;;;4.43;2.37;;;;;;;2.53;55.13;95472.41;6972901;28;20226;-80
2021/01/27 04:45:31;;;;;;;4.10;2.93;;;;;;;2.48;54.93;95464.81;6953445;28;20213;-80
2021/01/27 04:49:00;;;;;;;3.60;3.00;;;;;;;2.43;55.23;95461.56;6932680;28;21038;-80
2021/01/27 04:53:03;;;;;;;5.67;3.73;;;;;;;2.34;55.54;95441.13;6958645;28;20239;-81
2021/01/27 04:56:23;;;;;;;5.73;4.00;;;;;;;2.23;56.43;95419.88;6975649;28;20214;-80
2021/01/27 04:59:48;;;;;;;4.37;3.90;;;;;;;2.16;56.26;95431.63;6972561;28;20228;-79
2021/01/27 05:03:37;;;;;;;5.90;3.83;;;;;;;2.11;56.63;95442.31;6960838;28;20262;-80
2021/01/27 05:07:05;;;;;;;5.87;4.00;;;;;;;2.08;57.07;95434.63;6947643;28;20316;-81
2021/01/27 05:10:58;;;;;;;6.30;4.60;;;;;;;2.09;57.71;95427.63;6959211;28;20224;-79
2021/01/27 05:14:21;;;;;;;5.27;3.80;;;;;;;2.14;57.64;95423.84;6965457;28;20291;-79
2021/01/27 05:17:46;;;;;;;4.70;3.50;;;;;;;2.20;57.78;95414.81;6961694;28;20219;-79
2021/01/27 05:21:34;;;;;;;4.47;3.80;;;;;;;2.22;57.65;95402.47;6962188;28;20230;-80
2021/01/27 05:24:54;;;;;;;6.40;3.80;;;;;;;2.26;57.54;95390.91;6940758;28;20220;-80
2021/01/27 05:28:22;;;;;;;5.37;3.60;;;;;;;2.34;57.27;95387.84;6960279;28;20231;-78
2021/01/27 05:32:01;;;;;;;4.23;3.47;;;;;;;2.44;57.57;95386.41;6936552;28;20285;-79
2021/01/27 05:35:30;;;;;;;4.17;2.97;;;;;;;2.47;57.05;95379.22;6950061;28;20221;-79
2021/01/27 05:38:51;;;;;;;5.30;3.80;;;;;;;2.48;57.20;95391.41;6924695;28;20592;-79
2021/01/27 05:42:17;;;;;;;3.97;2.87;;;;;;;2.48;56.66;95383.53;6937015;28;20712;-79
2021/01/27 05:45:44;;;;;;;6.07;4.00;;;;;;;2.48;56.21;95380.06;6935765;28;20246;-79
2021/01/27 05:49:27;;;;;;;5.53;3.23;;;;;;;2.49;56.58;95376.53;6934945;28;20290;-78
2021/01/27 05:52:50;;;;;;;6.40;4.37;;;;;;;2.53;57.39;95367.56;6948642;28;20221;-79
2021/01/27 05:56:22;;;;;;;5.30;4.80;;;;;;;2.58;57.56;95370.78;6953454;28;20247;-78
2021/01/27 05:59:45;;;;;;;9.43;7.00;;;;;;;2.56;57.67;95364.78;6941287;28;20626;-79
2021/01/27 06:03:05;;;;;;;9.23;6.80;;;;;;;2.60;57.78;95361.06;6962849;28;20282;-80
2021/01/27 06:06:28;;;;;;;10.83;6.47;;;;;;;2.66;56.61;95354.63;6962405;28;20281;-80
2021/01/27 06:09:50;;;;;;;7.67;5.37;;;;;;;2.70;56.47;95337.78;6940166;28;20228;-79
2021/01/27 06:13:27;;;;;;;4.90;4.00;;;;;;;2.70;55.96;95338.63;6961244;28;20220;-78
2021/01/27 06:16:49;;;;;;;9.43;6.20;;;;;;;2.75;55.89;95331.34;6969555;28;20682;-78
2021/01/27 06:20:22;;;;;;;6.80;5.43;;;;;;;2.77;55.70;95326.84;6977032;28;20229;-79
2021/01/27 06:24:03;;;;;;;3.30;3.00;;;;;;;2.69;56.23;95315.13;6936773;28;20259;-79
2021/01/27 06:27:48;;;;;;;3.60;3.30;;;;;;;2.66;55.92;95316.16;6959705;28;20217;-81
2021/01/27 06:31:38;;;;;;;11.87;6.43;;;;;;;2.58;56.28;95328.84;6954116;28;20225;-79
2021/01/27 06:35:07;;;;;;;4.73;3.93;;;;;;;2.59;56.60;95336.63;6962900;28;20242;-79
2021/01/27 06:39:15;;;;;;;4.43;3.63;;;;;;;2.63;56.96;95333.81;6945693;28;20295;-79
2021/01/27 06:42:59;;;;;;;8.23;3.97;;;;;;;2.63;57.52;95341.69;6850912;28;20235;-79
2021/01/27 06:46:38;;;;;;;3.67;2.73;;;;;;;2.68;57.09;95322.13;6881112;28;20226;-78
2021/01/27 06:50:23;;;;;;;3.03;2.30;;;;;;;2.78;56.95;95322.44;6943634;28;20295;-79
2021/01/27 06:54:15;;;;;;;3.20;2.17;;;;;;;2.81;56.02;95317.06;6923637;28;20230;-80
2021/01/27 06:58:00;;;;;;;2.73;1.90;;;;;;;2.88;56.68;95298.22;6932467;28;20218;-80
2021/01/27 07:01:45;;;;;;;2.63;1.70;;;;;;;2.93;56.12;95293.56;6916339;28;20246;-79
2021/01/27 07:05:08;;;;;;;3.13;2.77;;;;;;;2.98;56.51;95281.03;6962686;28;20690;-75
2021/01/27 07:08:34;;;;;;;5.70;5.03;;;;;;;3.00;56.13;95273.94;6969505;28;20263;-74
2021/01/27 07:12:19;;;;;;;16.40;11.33;;;;;;;3.06;56.01;95275.34;6956945;28;20234;-75
2021/01/27 07:15:51;;;;;;;7.07;4.17;;;;;;;3.06;56.15;95269.25;6970193;28;20213;-74
2021/01/27 07:19:49;;;;;;;3.07;1.80;;;;;;;3.10;55.99;95284.72;6960354;28;20391;-74
2021/01/27 07:23:28;;;;;;;2.47;2.00;;;;;;;3.09;55.72;95279.56;6962653;28;20949;-74
2021/01/27 07:26:54;;;;;;;2.13;1.70;;;;;;;3.17;55.83;95290.44;6954943;28;20690;-74
2021/01/27 07:30:19;;;;;;;3.13;1.43;;;;;;;3.21;55.98;95291.97;6941383;28;20224;-73
2021/01/27 07:33:57;;;;;;;2.13;1.50;;;;;;;3.28;55.87;95301.97;6950974;28;20231;-74
2021/01/27 07:37:27;;;;;;;2.30;1.40;;;;;;;3.34;56.06;95309.50;6940142;28;20253;-74
2021/01/27 07:41:06;;;;;;;4.63;1.50;;;;;;;3.35;56.02;95313.81;6943580;28;20611;-72
2021/01/27 07:44:27;;;;;;;2.50;1.90;;;;;;;3.38;56.92;95311.00;6941954;28;20280;-72
2021/01/27 07:48:02;;;;;;;4.40;3.80;;;;;;;3.30;57.03;95301.91;6936148;28;20231;-71
2021/01/27 07:51:48;;;;;;;2.07;1.87;;;;;;;3.23;56.97;95298.78;6962591;28;20237;-72
2021/01/27 07:55:19;;;;;;;3.30;2.17;;;;;;;3.27;57.97;95292.41;6959598;28;20678;-72
2021/01/27 07:58:47;;;;;;;7.97;6.63;;;;;;;3.31;58.18;95286.06;6949110;28;20218;-72
2021/01/27 08:02:13;;;;;;;6.63;4.77;;;;;;;3.35;58.86;95291.97;6978593;28;20314;-72
2021/01/27 08:05:37;;;;;;;12.53;11.23;;;;;;;3.39;58.74;95275.09;6928113;28;20251;-72
2021/01/27 08:09:00;;;;;;;4.00;3.60;;;;;;;3.39;58.51;95268.06;6938021;28;20230;-71
2021/01/27 08:12:30;;;;;;;5.97;4.27;;;;;;;3.30;58.75;95260.75;6934961;28;20226;-72
2021/01/27 08:16:09;;;;;;;103.43;61.10;;;;;;;3.17;59.29;95270.28;6943066;28;20676;-72
2021/01/27 08:19:30;;;;;;;17.83;9.97;;;;;;;3.17;59.53;95286.03;6943143;28;20218;-72
2021/01/27 08:22:55;;;;;;;9.80;6.70;;;;;;;3.24;60.02;95276.00;6940259;28;20888;-72
2021/01/27 08:26:40;;;;;;;28.13;20.93;;;;;;;3.25;59.52;95272.47;6918319;28;20222;-71
2021/01/27 08:30:02;;;;;;;7.33;4.63;;;;;;;3.25;59.68;95261.97;6937806;28;20334;-71
2021/01/27 08:33:41;;;;;;;3.73;3.43;;;;;;;3.27;59.55;95252.22;6952057;28;20225;-71
2021/01/27 08:37:06;;;;;;;2.60;2.40;;;;;;;3.33;59.78;95241.34;6939581;28;20218;-71
2021/01/27 08:40:32;;;;;;;2.50;1.87;;;;;;;3.37;59.95;95253.38;6919940;28;20251;-71
2021/01/27 08:43:56;;;;;;;5.60;2.20;;;;;;;3.41;59.71;95250.47;6942340;28;20625;-72
2021/01/27 08:47:20;;;;;;;2.13;1.80;;;;;;;3.40;59.52;95243.50;6927556;28;20309;-71
2021/01/27 08:50:53;;;;;;;5.87;3.17;;;;;;;3.38;60.05;95227.00;6926667;28;20241;-72
2021/01/27 08:54:42;;;;;;;5.33;3.03;;;;;;;3.43;60.11;95240.69;6931897;28;20230;-72
2021/01/27 08:58:23;;;;;;;4.23;3.00;;;;;;;3.54;59.99;95240.03;6951192;28;20226;-72
2021/01/27 09:01:49;;;;;;;3.73;2.13;;;;;;;3.64;59.78;95233.28;6948951;28;20597;-73
2021/01/27 09:05:22;;;;;;;5.87;2.97;;;;;;;3.77;59.77;95236.00;6946359;28;20233;-73
2021/01/27 09:08:43;;;;;;;4.30;2.77;;;;;;;3.89;59.55;95228.19;6928788;28;20223;-73
2021/01/27 09:12:08;;;;;;;3.33;2.50;;;;;;;4.05;59.69;95224.59;6950418;28;20224;-73
2021/01/27 09:15:31;;;;;;;2.80;2.30;;;;;;;4.20;59.50;95227.06;6939510;28;20312;-73
2021/01/27 09:18:57;;;;;;;3.20;2.30;;;;;;;4.38;59.34;95235.53;6934968;28;20235;-73
2021/01/27 09:22:26;;;;;;;3.53;2.37;;;;;;;4.46;59.23;95216.66;6948388;28;20268;-73
2021/01/27 09:25:49;;;;;;;2.07;1.83;;;;;;;4.56;59.23;95215.09;6946477;28;20738;-73
2021/01/27 09:29:18;;;;;;;4.90;4.40;;;;;;;4.65;59.20;95220.59;6944824;28;20225;-73
2021/01/27 09:32:39;;;;;;;2.63;2.40;;;;;;;4.82;58.89;95211.59;6971977;28;20214;-72
2021/01/27 09:36:10;;;;;;;2.10;1.53;;;;;;;4.99;58.70;95213.06;6960651;28;20242;-71
2021/01/27 09:39:34;;;;;;;3.17;1.80;;;;;;;5.05;58.15;95216.16;6970957;28;20233;-71
2021/01/27 09:42:56;;;;;;;4.90;3.10;;;;;;;5.11;58.32;95215.72;6960548;28;20288;-72
2021/01/27 09:46:19;;;;;;;4.70;3.77;;;;;;;5.19;58.18;95205.50;6956660;28;20583;-71
2021/01/27 09:49:49;;;;;;;9.67;7.30;;;;;;;5.29;58.21;95210.13;6981823;28;20232;-72
2021/01/27 09:53:25;;;;;;;3.63;3.10;;;;;;;5.48;58.38;95210.56;6976116;28;20219;-72
2021/01/27 09:56:52;;;;;;;5.57;4.87;;;;;;;5.71;57.78;95212.44;6955843;28;20281;-71
2021/01/27 10:00:28;;;;;;;6.10;4.57;;;;;;;5.94;57.35;95210.81;6956581;28;20220;-71
2021/01/27 10:03:51;;;;;;;4.73;3.57;;;;;;;6.21;56.62;95221.19;6961992;28;20218;-72
2021/01/27 10:07:22;;;;;;;6.97;6.37;;;;;;;6.47;55.99;95228.91;6955218;28;20309;-71
2021/01/27 10:10:45;;;;;;;6.70;6.10;;;;;;;6.60;55.47;95233.28;6958571;28;20646;-72
2021/01/27 10:14:07;;;;;;;3.93;3.40;;;;;;;6.45;54.84;95236.06;6959421;28;20276;-72
2021/01/27 10:17:30;;;;;;;4.93;2.90;;;;;;;6.09;55.36;95237.88;6978261;28;20223;-71
2021/01/27 10:20:50;;;;;;;4.93;2.93;;;;;;;5.94;56.37;95231.91;6949501;28;20210;-71
2021/01/27 10:24:11;;;;;;;3.97;2.90;;;;;;;5.98;56.46;95242.16;6949006;28;20245;-72
2021/01/27 10:27:32;;;;;;;3.80;2.77;;;;;;;6.06;56.76;95243.38;6952234;28;20676;-71
2021/01/27 10:31:01;;;;;;;5.90;2.80;;;;;;;6.07;56.62;95235.38;6946825;28;20295;-71
2021/01/27 10:34:36;;;;;;;3.97;3.30;;;;;;;6.08;56.89;95231.78;6972362;28;20264;-71
2021/01/27 10:38:08;;;;;;;5.20;3.73;;;;;;;5.91;56.58;95211.91;6957382;28;20688;-71
2021/01/27 10:41:28;;;;;;;9.07;4.67;;;;;;;5.70;56.45;95215.16;6969527;28;20227;-71
2021/01/27 10:45:31;;;;;;;7.43;4.67;;;;;;;5.50;56.54;95225.31;6967026;28;20289;-71
2021/01/27 10:48:52;;;;;;;22.77;12.03;;;;;;;5.40;57.59;95234.78;6947388;28;20306;-71
2021/01/27 10:52:32;;;;;;;18.10;12.53;;;;;;;5.22;57.36;95224.69;6969007;28;20630;-71
2021/01/27 10:55:54;;;;;;;27.23;20.47;;;;;;;5.04;57.68;95210.97;6949652;28;20222;-71
2021/01/27 10:59:15;;;;;;;28.30;23.00;;;;;;;5.01;58.44;95198.03;6935619;28;20666;-71
2021/01/27 11:02:35;;;;;;;14.03;11.60;;;;;;;4.99;58.36;95199.91;6972213;28;20687;-71
2021/01/27 11:05:56;;;;;;;15.43;10.37;;;;;;;5.04;58.33;95197.81;6944713;28;20212;-72
2021/01/27 11:09:16;;;;;;;15.10;12.47;;;;;;;4.98;58.41;95200.88;6925667;28;20246;-71
2021/01/27 11:12:37;;;;;;;16.30;13.30;;;;;;;4.95;58.80;95191.41;6931124;28;20212;-70
2021/01/27 11:15:58;;;;;;;23.00;14.80;;;;;;;4.97;59.08;95180.78;6919425;28;20752;-71
2021/01/27 11:19:18;;;;;;;21.27;17.27;;;;;;;5.02;58.92;95190.03;6940846;28;20219;-72
2021/01/27 11:22:39;;;;;;;20.63;14.83;;;;;;;5.01;58.62;95176.97;6952752;28;20276;-71
2021/01/27 11:25:59;;;;;;;16.23;14.53;;;;;;;4.97;58.97;95181.63;6971147;28;20971;-71
2021/01/27 11:29:24;;;;;;;22.57;15.43;;;;;;;4.97;59.81;95184.25;6963655;28;20226;-72
2021/01/27 11:32:45;;;;;;;19.57;16.13;;;;;;;4.94;59.23;95187.06;6969400;28;21071;-71
2021/01/27 11:36:06;;;;;;;18.00;15.70;;;;;;;4.92;59.89;95183.72;6960479;28;20230;-71
2021/01/27 11:39:26;;;;;;;17.57;15.50;;;;;;;4.86;60.01;95185.91;6961259;28;20227;-71
2021/01/27 11:42:47;;;;;;;15.87;12.80;;;;;;;4.82;59.85;95197.59;6967239;28;20223;-71
2021/01/27 11:46:15;;;;;;;11.40;8.70;;;;;;;4.69;59.97;95193.16;6956856;28;20218;-73
2021/01/27 11:49:35;;;;;;;11.00;7.87;;;;;;;4.67;59.90;95204.72;6939619;28;20660;-72
2021/01/27 11:52:56;;;;;;;9.20;6.80;;;;;;;4.74;60.06;95206.00;6964007;28;20684;-70
2021/01/27 11:56:17;;;;;;;5.73;5.07;;;;;;;4.78;59.43;95209.28;6945812;28;20614;-71
2021/01/27 11:59:38;;;;;;;6.77;5.90;;;;;;;4.82;58.76;95208.13;6964523;28;20726;-71
2021/01/27 12:02:58;;;;;;;4.00;3.60;;;;;;;4.91;58.38;95199.59;6970422;28;20233;-71
2021/01/27 12:06:19;;;;;;;6.93;3.93;;;;;;;4.98;57.79;95200.88;6974666;28;20226;-71
2021/01/27 12:09:39;;;;;;;7.57;6.30;;;;;;;5.00;57.19;95207.72;6951653;28;20230;-70
2021/01/27 12:13:00;;;;;;;5.80;5.13;;;;;;;4.97;57.56;95213.19;6970505;28;20225;-71
2021/01/27 12:16:22;;;;;;;8.00;5.67;;;;;;;4.95;57.75;95219.50;6971282;28;20315;-71
2021/01/27 12:19:43;;;;;;;6.07;5.47;;;;;;;4.90;58.00;95218.97;6951668;28;20587;-71
2021/01/27 12:23:04;;;;;;;8.53;6.57;;;;;;;4.82;58.08;95227.38;6972847;28;20833;-71
2021/01/27 12:26:24;;;;;;;8.37;7.20;;;;;;;4.81;59.29;95222.22;6960927;28;20230;-71
2021/01/27 12:29:45;;;;;;;8.00;7.00;;;;;;;4.77;59.37;95223.38;6966871;28;20698;-70
2021/01/27 12:33:05;;;;;;;7.17;6.47;;;;;;;4.70;59.44;95229.03;6949773;28;20223;-71
2021/01/27 12:36:26;;;;;;;7.53;6.67;;;;;;;4.70;59.92;95230.81;6965059;28;20252;-71
2021/01/27 12:39:48;;;;;;;8.70;6.90;;;;;;;4.76;60.33;95235.69;6957228;28;20257;-71
2021/01/27 12:43:09;;;;;;;8.10;7.20;;;;;;;4.82;60.27;95239.69;6969261;28;20636;-71
2021/01/27 12:46:29;;;;;;;7.60;6.70;;;;;;;4.87;60.69;95248.97;6972116;28;20825;-71
2021/01/27 12:49:50;;;;;;;9.47;6.63;;;;;;;4.87;60.87;95263.91;6950931;28;20222;-71
2021/01/27 12:53:10;;;;;;;7.23;6.53;;;;;;;4.97;60.61;95260.56;6965780;28;20229;-71
2021/01/27 12:56:33;;;;;;;10.00;8.47;;;;;;;5.01;60.85;95264.66;6953639;28;20260;-70
2021/01/27 12:59:53;;;;;;;14.63;10.67;;;;;;;4.97;60.77;95264.97;6964902;28;20223;-71
2021/01/27 13:03:14;;;;;;;16.23;12.67;;;;;;;4.96;60.91;95268.56;6973017;28;20234;-71
2021/01/27 13:06:34;;;;;;;13.20;11.90;;;;;;;4.93;60.94;95269.59;6977628;28;20599;-70
2021/01/27 13:09:54;;;;;;;5.50;5.00;;;;;;;4.93;61.08;95281.94;6965225;28;20219;-71
2021/01/27 13:13:17;;;;;;;4.47;3.90;;;;;;;4.92;61.14;95274.97;6947436;28;20233;-70
2021/01/27 13:16:38;;;;;;;4.93;4.27;;;;;;;4.91;61.01;95266.22;6927619;28;20234;-71
2021/01/27 13:19:58;;;;;;;4.70;3.43;;;;;;;4.91;61.00;95270.66;6941987;28;20302;-70
2021/01/27 13:23:19;;;;;;;5.70;5.10;;;;;;;4.90;61.28;95259.28;6941855;28;20248;-71
2021/01/27 13:26:40;;;;;;;6.50;5.63;;;;;;;4.96;61.63;95247.50;6936620;28;20840;-71
2021/01/27 13:30:00;;;;;;;5.13;4.63;;;;;;;5.05;61.94;95253.00;6939897;28;20219;-71
2021/01/27 13:33:27;;;;;;;4.03;3.73;;;;;;;5.12;61.76;95232.38;6948972;28;20215;-73
2021/01/27 13:36:49;;;;;;;3.80;3.40;;;;;;;5.19;61.42;95228.34;6939731;28;20222;-72
2021/01/27 13:40:10;;;;;;;3.40;3.10;;;;;;;5.25;61.50;95225.31;6946279;28;20926;-71
2021/01/27 13:43:30;;;;;;;3.03;2.60;;;;;;;5.27;61.61;95220.81;6946391;28;20224;-71
2021/01/27 13:46:53;;;;;;;2.70;2.50;;;;;;;5.22;61.34;95214.16;6947232;28;20341;-71
2021/01/27 13:50:14;;;;;;;3.07;2.67;;;;;;;5.17;61.48;95214.47;6928535;28;20326;-72
2021/01/27 13:53:38;;;;;;;3.30;3.03;;;;;;;5.12;61.54;95216.56;6930952;28;20645;-71
2021/01/27 13:56:58;;;;;;;3.20;2.90;;;;;;;5.14;61.84;95209.41;6964061;28;20715;-70
2021/01/27 14:00:20;;;;;;;3.70;3.40;;;;;;;5.16;61.46;95212.78;6934308;28;20231;-71
2021/01/27 14:03:42;;;;;;;3.70;3.40;;;;;;;5.15;61.50;95211.09;6977109;28;20230;-70
2021/01/27 14:07:03;;;;;;;3.90;3.60;;;;;;;5.12;61.19;95214.78;6974884;28;20211;-71
2021/01/27 14:10:29;;;;;;;4.43;4.03;;;;;;;5.14;61.77;95212.03;6952273;28;20913;-71
2021/01/27 14:13:54;;;;;;;4.97;4.47;;;;;;;5.15;61.86;95209.31;6976208;28;20337;-71
2021/01/27 14:17:15;;;;;;;4.57;4.17;;;;;;;5.15;61.69;95209.31;6975140;28;20229;-71
2021/01/27 14:20:35;;;;;;;4.43;4.03;;;;;;;5.11;61.44;95197.31;6975075;28;21014;-71
2021/01/27 14:23:56;;;;;;;5.00;3.60;;;;;;;5.14;61.67;95201.50;6952193;28;20692;-71
2021/01/27 14:27:16;;;;;;;3.93;3.53;;;;;;;5.17;61.37;95199.53;6973145;28;20219;-72
2021/01/27 14:30:40;;;;;;;3.60;3.30;;;;;;;5.21;61.42;95196.66;6952221;28;20243;-72
2021/01/27 14:34:01;;;;;;;2.90;2.70;;;;;;;5.28;61.85;95197.94;6954088;28;20242;-73
2021/01/27 14:37:21;;;;;;;3.37;3.07;;;;;;;5.35;61.54;95194.78;6969097;28;20223;-71
2021/01/27 14:40:41;;;;;;;2.80;2.53;;;;;;;5.39;61.57;95196.25;6975424;28;20573;-72
2021/01/27 14:44:02;;;;;;;4.73;2.90;;;;;;;5.43;61.46;95187.16;6970688;28;20683;-72
2021/01/27 14:47:22;;;;;;;3.90;3.17;;;;;;;5.43;62.12;95181.09;6973069;28;20236;-71
2021/01/27 14:50:43;;;;;;;3.13;2.83;;;;;;;5.48;62.17;95182.41;6968290;28;20229;-70
2021/01/27 14:54:03;;;;;;;3.00;2.80;;;;;;;5.52;61.87;95178.66;6974912;28;20245;-70
2021/01/27 14:57:27;;;;;;;3.17;2.97;;;;;;;5.55;62.03;95173.16;6972478;28;20218;-70
2021/01/27 15:00:48;;;;;;;2.87;2.50;;;;;;;5.57;61.98;95171.25;6955933;28;20745;-70
2021/01/27 15:04:11;;;;;;;2.33;2.13;;;;;;;5.60;62.18;95168.41;6968710;28;20227;-70
2021/01/27 15:07:32;;;;;;;2.40;2.20;;;;;;;5.61;62.29;95169.25;6965440;28;20291;-71
2021/01/27 15:10:52;;;;;;;2.10;2.00;;;;;;;5.66;62.20;95159.22;6960270;28;20293;-72
2021/01/27 15:14:13;;;;;;;3.07;2.47;;;;;;;5.72;62.32;95166.69;6966459;28;20235;-72
2021/01/27 15:17:33;;;;;;;3.27;2.97;;;;;;;5.72;62.29;95163.22;6965242;28;20304;-71
2021/01/27 15:20:54;;;;;;;3.83;3.53;;;;;;;5.61;61.91;95170.09;6952495;28;20227;-71
2021/01/27 15:24:14;;;;;;;3.70;3.40;;;;;;;5.52;62.49;95169.91;6971710;28;20235;-71
2021/01/27 15:27:35;;;;;;;4.10;3.73;;;;;;;5.52;62.41;95169.91;6978297;28;20241;-71
2021/01/27 15:30:55;;;;;;;3.40;3.10;;;;;;;5.52;62.53;95177.81;6971491;28;20234;-71
2021/01/27 15:34:16;;;;;;;2.47;2.27;;;;;;;5.55;62.95;95175.78;6971367;28;20242;-71
2021/01/27 15:37:36;;;;;;;1.80;1.70;;;;;;;5.60;62.85;95171.03;6973817;28;20222;-71
2021/01/27 15:40:56;;;;;;;2.47;1.90;;;;;;;5.68;63.01;95167.88;6970675;28;20258;-71
2021/01/27 15:44:17;;;;;;;1.93;1.80;;;;;;;5.75;62.98;95165.63;6939424;28;20243;-70
2021/01/27 15:47:40;;;;;;;2.30;2.10;;;;;;;5.80;62.78;95160.88;6969803;28;20866;-71
2021/01/27 15:51:00;;;;;;;1.97;1.87;;;;;;;5.82;62.83;95166.88;6972894;28;20233;-71
2021/01/27 15:54:21;;;;;;;2.33;1.97;;;;;;;5.83;62.71;95166.78;6970478;28;20246;-70
2021/01/27 15:57:41;;;;;;;3.03;2.37;;;;;;;5.79;62.85;95164.44;6975592;28;20260;-70
2021/01/27 16:01:03;;;;;;;2.20;2.00;;;;;;;5.80;62.84;95160.88;6972912;28;20218;-70
2021/01/27 16:04:23;;;;;;;2.10;1.90;;;;;;;5.81;62.73;95171.31;6947787;28;20280;-71
2021/01/27 16:07:44;;;;;;;1.93;1.60;;;;;;;5.84;62.99;95162.31;6969301;28;20210;-70
2021/01/27 16:11:04;;;;;;;2.07;1.93;;;;;;;5.84;62.77;95165.81;6964671;28;20226;-70
2021/01/27 16:14:26;;;;;;;1.60;1.47;;;;;;;5.85;63.12;95175.41;6948202;28;20215;-70
2021/01/27 16:17:46;;;;;;;2.20;2.00;;;;;;;5.86;62.81;95170.97;6962567;28;20215;-71